sensor_id;sensor_type;location;lat;lon;timestamp;P1;durP1;ratioP1;P2;durP2;ratioP2
11854;SDS011;5987;53.140;8.904;2022-12-10T00:02:25;47.50;;;22.97;;
11854;SDS011;5987;53.140;8.904;2022-12-10T00:05:30;47.90;;;23.07;;
11854;SDS011;5987;53.140;8.904;2022-12-10T00:08:36;53.13;;;24.47;;
11854;SDS011;5987;53.140;8.904;2022-12-10T00:11:40;48.13;;;23.27;;
11854;SDS011;5987;53.140;8.904;2022-12-10T00:14:44;47.67;;;22.27;;
11854;SDS011;5987;53.140;8.904;2022-12-10T00:17:47;50.63;;;23.50;;
11854;SDS011;5987;53.140;8.904;2022-12-10T00:20:53;50.53;;;22.60;;
11854;SDS011;5987;53.140;8.904;2022-12-10T00:23:57;48.53;;;23.00;;
11854;SDS011;5987;53.140;8.904;2022-12-10T00:27:02;49.70;;;24.20;;
11854;SDS011;5987;53.140;8.904;2022-12-10T00:30:06;50.23;;;24.93;;
11854;SDS011;5987;53.140;8.904;2022-12-10T00:33:11;48.57;;;23.53;;
11854;SDS011;5987;53.140;8.904;2022-12-10T00:36:17;47.87;;;24.00;;
11854;SDS011;5987;53.140;8.904;2022-12-10T00:39:23;53.07;;;24.00;;
11854;SDS011;5987;53.140;8.904;2022-12-10T00:42:26;51.70;;;23.83;;
11854;SDS011;5987;53.140;8.904;2022-12-10T00:45:30;49.40;;;23.53;;
11854;SDS011;5987;53.140;8.904;2022-12-10T00:48:34;51.63;;;25.33;;
11854;SDS011;5987;53.140;8.904;2022-12-10T00:51:39;53.03;;;25.13;;
11854;SDS011;5987;53.140;8.904;2022-12-10T00:54:43;49.03;;;23.07;;
11854;SDS011;5987;53.140;8.904;2022-12-10T00:57:47;50.10;;;22.80;;
11854;SDS011;5987;53.140;8.904;2022-12-10T01:00:50;49.40;;;23.40;;
11854;SDS011;5987;53.140;8.904;2022-12-10T01:03:55;44.20;;;23.43;;
11854;SDS011;5987;53.140;8.904;2022-12-10T01:07:03;45.90;;;24.07;;
11854;SDS011;5987;53.140;8.904;2022-12-10T01:10:11;47.17;;;24.20;;
11854;SDS011;5987;53.140;8.904;2022-12-10T01:13:15;51.20;;;25.00;;
11854;SDS011;5987;53.140;8.904;2022-12-10T01:16:19;50.97;;;26.03;;
11854;SDS011;5987;53.140;8.904;2022-12-10T01:19:25;50.83;;;23.77;;
11854;SDS011;5987;53.140;8.904;2022-12-10T01:22:30;53.97;;;25.33;;
11854;SDS011;5987;53.140;8.904;2022-12-10T01:25:34;51.37;;;24.93;;
11854;SDS011;5987;53.140;8.904;2022-12-10T01:28:38;52.33;;;24.23;;
11854;SDS011;5987;53.140;8.904;2022-12-10T01:31:44;50.20;;;25.37;;
11854;SDS011;5987;53.140;8.904;2022-12-10T01:34:49;50.07;;;24.60;;
11854;SDS011;5987;53.140;8.904;2022-12-10T01:37:54;49.10;;;24.70;;
11854;SDS011;5987;53.140;8.904;2022-12-10T01:40:58;47.50;;;25.03;;
11854;SDS011;5987;53.140;8.904;2022-12-10T01:44:03;52.20;;;24.20;;
11854;SDS011;5987;53.140;8.904;2022-12-10T01:47:47;47.17;;;23.80;;
11854;SDS011;5987;53.140;8.904;2022-12-10T01:50:51;47.20;;;25.13;;
11854;SDS011;5987;53.140;8.904;2022-12-10T01:53:56;49.97;;;23.83;;
11854;SDS011;5987;53.140;8.904;2022-12-10T01:57:01;52.43;;;24.57;;
11854;SDS011;5987;53.140;8.904;2022-12-10T02:00:08;47.60;;;24.30;;
11854;SDS011;5987;53.140;8.904;2022-12-10T02:03:14;43.83;;;23.13;;
11854;SDS011;5987;53.140;8.904;2022-12-10T02:06:38;50.40;;;24.07;;
11854;SDS011;5987;53.140;8.904;2022-12-10T02:09:58;47.93;;;23.10;;
11854;SDS011;5987;53.140;8.904;2022-12-10T02:13:11;41.63;;;22.20;;
11854;SDS011;5987;53.140;8.904;2022-12-10T02:16:24;40.70;;;22.83;;
11854;SDS011;5987;53.140;8.904;2022-12-10T02:19:41;46.93;;;23.10;;
11854;SDS011;5987;53.140;8.904;2022-12-10T02:23:01;47.47;;;23.87;;
11854;SDS011;5987;53.140;8.904;2022-12-10T02:26:12;47.10;;;24.07;;
11854;SDS011;5987;53.140;8.904;2022-12-10T02:29:32;45.77;;;23.07;;
11854;SDS011;5987;53.140;8.904;2022-12-10T02:32:38;43.87;;;22.90;;
11854;SDS011;5987;53.140;8.904;2022-12-10T02:35:46;42.70;;;22.43;;
11854;SDS011;5987;53.140;8.904;2022-12-10T02:38:54;50.03;;;24.63;;
11854;SDS011;5987;53.140;8.904;2022-12-10T02:42:02;48.47;;;23.67;;
11854;SDS011;5987;53.140;8.904;2022-12-10T02:45:10;48.07;;;24.13;;
11854;SDS011;5987;53.140;8.904;2022-12-10T02:48:15;47.07;;;24.30;;
11854;SDS011;5987;53.140;8.904;2022-12-10T02:51:20;47.80;;;25.50;;
11854;SDS011;5987;53.140;8.904;2022-12-10T02:54:35;46.53;;;23.10;;
11854;SDS011;5987;53.140;8.904;2022-12-10T02:57:44;46.33;;;23.87;;
11854;SDS011;5987;53.140;8.904;2022-12-10T03:01:12;46.53;;;23.50;;
11854;SDS011;5987;53.140;8.904;2022-12-10T03:04:28;49.23;;;24.27;;
11854;SDS011;5987;53.140;8.904;2022-12-10T03:07:44;44.47;;;22.60;;
11854;SDS011;5987;53.140;8.904;2022-12-10T03:10:55;43.67;;;22.43;;
11854;SDS011;5987;53.140;8.904;2022-12-10T03:14:11;47.60;;;23.60;;
11854;SDS011;5987;53.140;8.904;2022-12-10T03:17:22;41.67;;;22.80;;
11854;SDS011;5987;53.140;8.904;2022-12-10T03:20:26;44.90;;;23.37;;
11854;SDS011;5987;53.140;8.904;2022-12-10T03:23:35;41.77;;;22.50;;
11854;SDS011;5987;53.140;8.904;2022-12-10T03:26:43;44.10;;;22.07;;
11854;SDS011;5987;53.140;8.904;2022-12-10T03:29:52;47.63;;;23.63;;
11854;SDS011;5987;53.140;8.904;2022-12-10T03:33:02;48.03;;;23.87;;
11854;SDS011;5987;53.140;8.904;2022-12-10T03:36:07;38.93;;;21.07;;
11854;SDS011;5987;53.140;8.904;2022-12-10T03:39:12;42.47;;;21.50;;
11854;SDS011;5987;53.140;8.904;2022-12-10T03:42:16;45.67;;;22.90;;
11854;SDS011;5987;53.140;8.904;2022-12-10T03:45:20;44.67;;;21.87;;
11854;SDS011;5987;53.140;8.904;2022-12-10T03:48:25;38.23;;;21.27;;
11854;SDS011;5987;53.140;8.904;2022-12-10T03:51:29;40.80;;;21.77;;
11854;SDS011;5987;53.140;8.904;2022-12-10T03:54:33;46.00;;;22.50;;
11854;SDS011;5987;53.140;8.904;2022-12-10T03:57:36;46.50;;;22.40;;
11854;SDS011;5987;53.140;8.904;2022-12-10T04:00:40;46.67;;;21.90;;
11854;SDS011;5987;53.140;8.904;2022-12-10T04:03:45;44.50;;;21.90;;
11854;SDS011;5987;53.140;8.904;2022-12-10T04:06:49;42.43;;;22.47;;
11854;SDS011;5987;53.140;8.904;2022-12-10T04:09:53;39.33;;;20.43;;
11854;SDS011;5987;53.140;8.904;2022-12-10T04:12:56;42.93;;;21.60;;
11854;SDS011;5987;53.140;8.904;2022-12-10T04:16:17;40.77;;;20.87;;
11854;SDS011;5987;53.140;8.904;2022-12-10T04:19:32;37.50;;;20.03;;
11854;SDS011;5987;53.140;8.904;2022-12-10T04:22:36;47.67;;;21.77;;
11854;SDS011;5987;53.140;8.904;2022-12-10T04:25:57;39.70;;;22.00;;
11854;SDS011;5987;53.140;8.904;2022-12-10T04:29:18;40.87;;;21.33;;
11854;SDS011;5987;53.140;8.904;2022-12-10T04:32:23;38.83;;;20.97;;
11854;SDS011;5987;53.140;8.904;2022-12-10T04:35:29;41.83;;;20.30;;
11854;SDS011;5987;53.140;8.904;2022-12-10T04:38:33;44.77;;;22.47;;
11854;SDS011;5987;53.140;8.904;2022-12-10T04:41:37;43.43;;;20.13;;
11854;SDS011;5987;53.140;8.904;2022-12-10T04:44:42;38.50;;;20.57;;
11854;SDS011;5987;53.140;8.904;2022-12-10T04:47:46;38.37;;;20.13;;
11854;SDS011;5987;53.140;8.904;2022-12-10T04:50:51;38.00;;;21.00;;
11854;SDS011;5987;53.140;8.904;2022-12-10T04:53:55;40.93;;;20.70;;
11854;SDS011;5987;53.140;8.904;2022-12-10T04:56:58;40.20;;;20.83;;
11854;SDS011;5987;53.140;8.904;2022-12-10T05:00:02;39.30;;;21.80;;
11854;SDS011;5987;53.140;8.904;2022-12-10T05:03:07;38.23;;;20.30;;
11854;SDS011;5987;53.140;8.904;2022-12-10T05:06:13;40.07;;;21.43;;
11854;SDS011;5987;53.140;8.904;2022-12-10T05:09:19;40.70;;;20.13;;
11854;SDS011;5987;53.140;8.904;2022-12-10T05:12:24;25.10;;;15.17;;
11854;SDS011;5987;53.140;8.904;2022-12-10T05:15:29;17.97;;;9.93;;
11854;SDS011;5987;53.140;8.904;2022-12-10T05:18:33;20.33;;;11.17;;
11854;SDS011;5987;53.140;8.904;2022-12-10T05:21:39;29.27;;;15.23;;
11854;SDS011;5987;53.140;8.904;2022-12-10T05:25:00;32.50;;;18.07;;
11854;SDS011;5987;53.140;8.904;2022-12-10T05:28:04;21.73;;;11.50;;
11854;SDS011;5987;53.140;8.904;2022-12-10T05:31:10;13.40;;;9.20;;
11854;SDS011;5987;53.140;8.904;2022-12-10T05:34:15;17.63;;;11.47;;
11854;SDS011;5987;53.140;8.904;2022-12-10T05:37:21;17.00;;;10.97;;
11854;SDS011;5987;53.140;8.904;2022-12-10T05:40:24;18.43;;;11.67;;
11854;SDS011;5987;53.140;8.904;2022-12-10T05:43:28;24.23;;;14.10;;
11854;SDS011;5987;53.140;8.904;2022-12-10T05:46:32;24.00;;;14.23;;
11854;SDS011;5987;53.140;8.904;2022-12-10T05:49:37;18.10;;;10.93;;
11854;SDS011;5987;53.140;8.904;2022-12-10T05:52:42;16.17;;;10.07;;
11854;SDS011;5987;53.140;8.904;2022-12-10T05:55:46;14.97;;;9.83;;
11854;SDS011;5987;53.140;8.904;2022-12-10T05:58:51;15.13;;;9.57;;
11854;SDS011;5987;53.140;8.904;2022-12-10T06:01:57;14.30;;;9.87;;
11854;SDS011;5987;53.140;8.904;2022-12-10T06:05:00;16.70;;;10.57;;
11854;SDS011;5987;53.140;8.904;2022-12-10T06:08:06;20.37;;;12.53;;
11854;SDS011;5987;53.140;8.904;2022-12-10T06:11:10;27.47;;;14.47;;
11854;SDS011;5987;53.140;8.904;2022-12-10T06:14:14;21.90;;;13.30;;
11854;SDS011;5987;53.140;8.904;2022-12-10T06:17:18;20.23;;;12.33;;
11854;SDS011;5987;53.140;8.904;2022-12-10T06:20:22;19.97;;;12.57;;
11854;SDS011;5987;53.140;8.904;2022-12-10T06:23:27;15.87;;;11.97;;
11854;SDS011;5987;53.140;8.904;2022-12-10T06:26:31;19.20;;;12.33;;
11854;SDS011;5987;53.140;8.904;2022-12-10T06:29:35;20.87;;;13.27;;
11854;SDS011;5987;53.140;8.904;2022-12-10T06:32:38;17.93;;;11.47;;
11854;SDS011;5987;53.140;8.904;2022-12-10T06:35:44;19.33;;;13.23;;
11854;SDS011;5987;53.140;8.904;2022-12-10T06:38:49;21.07;;;11.53;;
11854;SDS011;5987;53.140;8.904;2022-12-10T06:41:53;20.63;;;12.33;;
11854;SDS011;5987;53.140;8.904;2022-12-10T06:44:59;15.47;;;10.20;;
11854;SDS011;5987;53.140;8.904;2022-12-10T06:48:03;20.97;;;11.63;;
11854;SDS011;5987;53.140;8.904;2022-12-10T06:51:07;16.73;;;11.67;;
11854;SDS011;5987;53.140;8.904;2022-12-10T06:54:14;17.63;;;10.90;;
11854;SDS011;5987;53.140;8.904;2022-12-10T06:57:17;17.77;;;11.20;;
11854;SDS011;5987;53.140;8.904;2022-12-10T07:00:21;20.90;;;12.57;;
11854;SDS011;5987;53.140;8.904;2022-12-10T07:03:25;22.50;;;14.03;;
11854;SDS011;5987;53.140;8.904;2022-12-10T07:06:30;23.73;;;13.50;;
11854;SDS011;5987;53.140;8.904;2022-12-10T07:09:36;17.33;;;12.43;;
11854;SDS011;5987;53.140;8.904;2022-12-10T07:12:40;17.10;;;11.30;;
11854;SDS011;5987;53.140;8.904;2022-12-10T07:15:44;18.93;;;11.57;;
11854;SDS011;5987;53.140;8.904;2022-12-10T07:18:48;18.93;;;10.63;;
11854;SDS011;5987;53.140;8.904;2022-12-10T07:21:53;17.37;;;10.13;;
11854;SDS011;5987;53.140;8.904;2022-12-10T07:24:58;14.97;;;8.97;;
11854;SDS011;5987;53.140;8.904;2022-12-10T07:28:03;16.77;;;10.40;;
11854;SDS011;5987;53.140;8.904;2022-12-10T07:31:07;16.50;;;10.13;;
11854;SDS011;5987;53.140;8.904;2022-12-10T07:34:12;18.43;;;11.37;;
11854;SDS011;5987;53.140;8.904;2022-12-10T07:37:15;21.40;;;12.37;;
11854;SDS011;5987;53.140;8.904;2022-12-10T07:40:21;17.00;;;11.27;;
11854;SDS011;5987;53.140;8.904;2022-12-10T07:43:25;20.47;;;11.37;;
11854;SDS011;5987;53.140;8.904;2022-12-10T07:46:29;20.33;;;11.83;;
11854;SDS011;5987;53.140;8.904;2022-12-10T07:49:34;18.33;;;10.90;;
11854;SDS011;5987;53.140;8.904;2022-12-10T07:52:38;16.53;;;10.43;;
11854;SDS011;5987;53.140;8.904;2022-12-10T07:55:43;17.70;;;11.27;;
11854;SDS011;5987;53.140;8.904;2022-12-10T07:58:47;16.90;;;11.10;;
11854;SDS011;5987;53.140;8.904;2022-12-10T08:01:51;16.47;;;10.40;;
11854;SDS011;5987;53.140;8.904;2022-12-10T08:04:55;18.37;;;10.30;;
11854;SDS011;5987;53.140;8.904;2022-12-10T08:07:59;18.50;;;10.80;;
11854;SDS011;5987;53.140;8.904;2022-12-10T08:11:10;18.17;;;10.80;;
11854;SDS011;5987;53.140;8.904;2022-12-10T08:14:15;19.73;;;13.00;;
11854;SDS011;5987;53.140;8.904;2022-12-10T08:17:19;20.63;;;12.83;;
11854;SDS011;5987;53.140;8.904;2022-12-10T08:20:22;20.77;;;13.27;;
11854;SDS011;5987;53.140;8.904;2022-12-10T08:23:27;19.17;;;12.77;;
11854;SDS011;5987;53.140;8.904;2022-12-10T08:26:32;23.07;;;13.27;;
11854;SDS011;5987;53.140;8.904;2022-12-10T08:29:37;20.40;;;11.90;;
11854;SDS011;5987;53.140;8.904;2022-12-10T08:32:40;19.93;;;12.00;;
11854;SDS011;5987;53.140;8.904;2022-12-10T08:35:44;18.23;;;10.53;;
11854;SDS011;5987;53.140;8.904;2022-12-10T08:38:47;15.30;;;9.83;;
11854;SDS011;5987;53.140;8.904;2022-12-10T08:41:53;17.13;;;9.90;;
11854;SDS011;5987;53.140;8.904;2022-12-10T08:44:56;18.33;;;10.93;;
11854;SDS011;5987;53.140;8.904;2022-12-10T08:48:00;19.33;;;10.97;;
11854;SDS011;5987;53.140;8.904;2022-12-10T08:51:05;18.67;;;11.60;;
11854;SDS011;5987;53.140;8.904;2022-12-10T08:54:10;18.57;;;10.57;;
11854;SDS011;5987;53.140;8.904;2022-12-10T08:57:16;18.67;;;11.93;;
11854;SDS011;5987;53.140;8.904;2022-12-10T09:00:20;19.07;;;11.73;;
11854;SDS011;5987;53.140;8.904;2022-12-10T09:03:26;19.30;;;12.47;;
11854;SDS011;5987;53.140;8.904;2022-12-10T09:06:30;25.50;;;15.07;;
11854;SDS011;5987;53.140;8.904;2022-12-10T09:09:34;26.80;;;15.03;;
11854;SDS011;5987;53.140;8.904;2022-12-10T09:12:39;28.97;;;16.53;;
11854;SDS011;5987;53.140;8.904;2022-12-10T09:15:48;30.70;;;16.63;;
11854;SDS011;5987;53.140;8.904;2022-12-10T09:18:53;22.07;;;14.33;;
11854;SDS011;5987;53.140;8.904;2022-12-10T09:21:57;25.27;;;15.23;;
11854;SDS011;5987;53.140;8.904;2022-12-10T09:25:01;23.60;;;14.17;;
11854;SDS011;5987;53.140;8.904;2022-12-10T09:28:07;24.50;;;14.97;;
11854;SDS011;5987;53.140;8.904;2022-12-10T09:31:11;22.80;;;14.50;;
11854;SDS011;5987;53.140;8.904;2022-12-10T09:34:20;22.60;;;12.93;;
11854;SDS011;5987;53.140;8.904;2022-12-10T09:37:24;14.07;;;10.47;;
11854;SDS011;5987;53.140;8.904;2022-12-10T09:40:29;16.40;;;10.23;;
11854;SDS011;5987;53.140;8.904;2022-12-10T09:43:45;14.03;;;8.60;;
11854;SDS011;5987;53.140;8.904;2022-12-10T09:46:56;14.27;;;9.27;;
11854;SDS011;5987;53.140;8.904;2022-12-10T09:50:05;21.17;;;13.50;;
11854;SDS011;5987;53.140;8.904;2022-12-10T09:53:20;26.33;;;15.47;;
11854;SDS011;5987;53.140;8.904;2022-12-10T09:56:28;31.37;;;16.43;;
11854;SDS011;5987;53.140;8.904;2022-12-10T09:59:38;29.33;;;16.50;;
11854;SDS011;5987;53.140;8.904;2022-12-10T10:02:46;30.57;;;17.03;;
11854;SDS011;5987;53.140;8.904;2022-12-10T10:05:52;29.67;;;15.50;;
11854;SDS011;5987;53.140;8.904;2022-12-10T10:08:59;22.60;;;14.83;;
11854;SDS011;5987;53.140;8.904;2022-12-10T10:12:08;25.13;;;14.23;;
11854;SDS011;5987;53.140;8.904;2022-12-10T10:15:24;23.00;;;13.00;;
11854;SDS011;5987;53.140;8.904;2022-12-10T10:18:34;18.70;;;11.33;;
11854;SDS011;5987;53.140;8.904;2022-12-10T10:21:44;22.20;;;12.90;;
11854;SDS011;5987;53.140;8.904;2022-12-10T10:24:51;24.03;;;13.00;;
11854;SDS011;5987;53.140;8.904;2022-12-10T10:27:55;20.00;;;11.30;;
11854;SDS011;5987;53.140;8.904;2022-12-10T10:31:00;20.23;;;11.30;;
11854;SDS011;5987;53.140;8.904;2022-12-10T10:34:17;21.50;;;13.37;;
11854;SDS011;5987;53.140;8.904;2022-12-10T10:37:25;25.47;;;12.30;;
11854;SDS011;5987;53.140;8.904;2022-12-10T10:40:40;18.60;;;11.87;;
11854;SDS011;5987;53.140;8.904;2022-12-10T10:43:47;18.27;;;11.13;;
11854;SDS011;5987;53.140;8.904;2022-12-10T10:47:02;20.10;;;12.17;;
11854;SDS011;5987;53.140;8.904;2022-12-10T10:50:39;23.43;;;13.57;;
11854;SDS011;5987;53.140;8.904;2022-12-10T10:53:49;20.07;;;13.17;;
11854;SDS011;5987;53.140;8.904;2022-12-10T10:56:56;23.00;;;13.13;;
11854;SDS011;5987;53.140;8.904;2022-12-10T11:00:01;21.50;;;12.50;;
11854;SDS011;5987;53.140;8.904;2022-12-10T11:03:12;18.07;;;11.17;;
11854;SDS011;5987;53.140;8.904;2022-12-10T11:06:16;22.63;;;11.80;;
11854;SDS011;5987;53.140;8.904;2022-12-10T11:09:21;22.93;;;11.87;;
11854;SDS011;5987;53.140;8.904;2022-12-10T11:12:33;17.20;;;10.00;;
11854;SDS011;5987;53.140;8.904;2022-12-10T11:15:57;16.03;;;9.53;;
11854;SDS011;5987;53.140;8.904;2022-12-10T11:19:16;18.77;;;10.30;;
11854;SDS011;5987;53.140;8.904;2022-12-10T11:22:24;22.63;;;11.03;;
11854;SDS011;5987;53.140;8.904;2022-12-10T11:25:36;18.30;;;11.03;;
11854;SDS011;5987;53.140;8.904;2022-12-10T11:28:58;16.60;;;10.17;;
11854;SDS011;5987;53.140;8.904;2022-12-10T11:32:23;17.20;;;10.13;;
11854;SDS011;5987;53.140;8.904;2022-12-10T11:35:47;22.77;;;12.07;;
11854;SDS011;5987;53.140;8.904;2022-12-10T11:39:06;18.43;;;10.87;;
11854;SDS011;5987;53.140;8.904;2022-12-10T11:42:33;16.53;;;11.00;;
11854;SDS011;5987;53.140;8.904;2022-12-10T11:45:54;18.23;;;10.63;;
11854;SDS011;5987;53.140;8.904;2022-12-10T11:49:18;18.13;;;9.60;;
11854;SDS011;5987;53.140;8.904;2022-12-10T11:52:36;14.57;;;9.53;;
11854;SDS011;5987;53.140;8.904;2022-12-10T11:55:59;18.63;;;10.00;;
11854;SDS011;5987;53.140;8.904;2022-12-10T11:59:19;17.07;;;10.50;;
11854;SDS011;5987;53.140;8.904;2022-12-10T12:03:00;18.13;;;10.60;;
11854;SDS011;5987;53.140;8.904;2022-12-10T12:06:40;17.03;;;9.83;;
11854;SDS011;5987;53.140;8.904;2022-12-10T12:14:12;19.03;;;11.27;;
11854;SDS011;5987;53.140;8.904;2022-12-10T12:17:26;18.43;;;10.23;;
11854;SDS011;5987;53.140;8.904;2022-12-10T12:20:37;20.93;;;11.93;;
11854;SDS011;5987;53.140;8.904;2022-12-10T12:23:49;19.80;;;10.77;;
11854;SDS011;5987;53.140;8.904;2022-12-10T12:27:08;20.67;;;12.17;;
11854;SDS011;5987;53.140;8.904;2022-12-10T12:30:23;18.40;;;10.63;;
11854;SDS011;5987;53.140;8.904;2022-12-10T12:33:28;20.57;;;11.83;;
11854;SDS011;5987;53.140;8.904;2022-12-10T12:36:42;17.27;;;10.73;;
11854;SDS011;5987;53.140;8.904;2022-12-10T12:39:48;19.93;;;10.77;;
11854;SDS011;5987;53.140;8.904;2022-12-10T12:43:07;18.20;;;9.97;;
11854;SDS011;5987;53.140;8.904;2022-12-10T12:46:20;20.90;;;12.70;;
11854;SDS011;5987;53.140;8.904;2022-12-10T12:49:34;21.87;;;12.40;;
11854;SDS011;5987;53.140;8.904;2022-12-10T12:52:43;19.13;;;11.93;;
11854;SDS011;5987;53.140;8.904;2022-12-10T12:55:56;19.87;;;11.23;;
11854;SDS011;5987;53.140;8.904;2022-12-10T12:59:11;19.83;;;11.33;;
11854;SDS011;5987;53.140;8.904;2022-12-10T13:02:38;25.73;;;13.77;;
11854;SDS011;5987;53.140;8.904;2022-12-10T13:05:56;20.70;;;12.00;;
11854;SDS011;5987;53.140;8.904;2022-12-10T13:09:25;22.47;;;11.90;;
11854;SDS011;5987;53.140;8.904;2022-12-10T13:12:32;20.67;;;12.90;;
11854;SDS011;5987;53.140;8.904;2022-12-10T13:15:52;45.77;;;26.93;;
11854;SDS011;5987;53.140;8.904;2022-12-10T13:25:59;25.47;;;12.93;;
11854;SDS011;5987;53.140;8.904;2022-12-10T13:29:12;23.30;;;13.90;;
11854;SDS011;5987;53.140;8.904;2022-12-10T13:32:46;25.87;;;16.00;;
11854;SDS011;5987;53.140;8.904;2022-12-10T13:35:57;26.03;;;16.63;;
11854;SDS011;5987;53.140;8.904;2022-12-10T13:39:11;19.90;;;12.40;;
11854;SDS011;5987;53.140;8.904;2022-12-10T13:42:36;24.63;;;15.87;;
11854;SDS011;5987;53.140;8.904;2022-12-10T13:46:22;30.17;;;18.50;;
11854;SDS011;5987;53.140;8.904;2022-12-10T13:49:32;19.47;;;12.77;;
11854;SDS011;5987;53.140;8.904;2022-12-10T13:52:54;23.20;;;14.20;;
11854;SDS011;5987;53.140;8.904;2022-12-10T13:56:12;23.73;;;14.13;;
11854;SDS011;5987;53.140;8.904;2022-12-10T13:59:29;27.20;;;15.53;;
11854;SDS011;5987;53.140;8.904;2022-12-10T14:02:50;28.60;;;17.20;;
11854;SDS011;5987;53.140;8.904;2022-12-10T14:06:33;24.73;;;13.87;;
11854;SDS011;5987;53.140;8.904;2022-12-10T14:09:42;21.87;;;13.93;;
11854;SDS011;5987;53.140;8.904;2022-12-10T14:12:52;23.57;;;14.00;;
11854;SDS011;5987;53.140;8.904;2022-12-10T14:15:57;22.77;;;14.03;;
11854;SDS011;5987;53.140;8.904;2022-12-10T14:19:07;25.47;;;15.33;;
11854;SDS011;5987;53.140;8.904;2022-12-10T14:22:19;26.73;;;15.53;;
11854;SDS011;5987;53.140;8.904;2022-12-10T14:25:31;27.93;;;17.23;;
11854;SDS011;5987;53.140;8.904;2022-12-10T14:28:46;28.37;;;16.10;;
11854;SDS011;5987;53.140;8.904;2022-12-10T14:31:52;27.43;;;15.93;;
11854;SDS011;5987;53.140;8.904;2022-12-10T14:34:56;28.70;;;16.37;;
11854;SDS011;5987;53.140;8.904;2022-12-10T14:38:03;32.07;;;18.03;;
11854;SDS011;5987;53.140;8.904;2022-12-10T14:41:07;28.37;;;16.30;;
11854;SDS011;5987;53.140;8.904;2022-12-10T14:44:16;32.80;;;18.40;;
11854;SDS011;5987;53.140;8.904;2022-12-10T14:47:21;31.63;;;17.70;;
11854;SDS011;5987;53.140;8.904;2022-12-10T14:50:25;28.60;;;17.43;;
11854;SDS011;5987;53.140;8.904;2022-12-10T14:53:32;30.07;;;17.17;;
11854;SDS011;5987;53.140;8.904;2022-12-10T14:56:37;30.30;;;17.40;;
11854;SDS011;5987;53.140;8.904;2022-12-10T14:59:43;30.07;;;16.40;;
11854;SDS011;5987;53.140;8.904;2022-12-10T15:03:06;28.67;;;16.30;;
11854;SDS011;5987;53.140;8.904;2022-12-10T15:06:15;30.60;;;17.27;;
11854;SDS011;5987;53.140;8.904;2022-12-10T15:09:23;28.20;;;16.77;;
11854;SDS011;5987;53.140;8.904;2022-12-10T15:12:30;31.13;;;17.53;;
11854;SDS011;5987;53.140;8.904;2022-12-10T15:15:45;30.93;;;15.33;;
11854;SDS011;5987;53.140;8.904;2022-12-10T15:18:54;28.37;;;17.03;;
11854;SDS011;5987;53.140;8.904;2022-12-10T15:22:00;29.03;;;15.73;;
11854;SDS011;5987;53.140;8.904;2022-12-10T15:25:23;32.00;;;16.10;;
11854;SDS011;5987;53.140;8.904;2022-12-10T15:28:33;26.80;;;15.37;;
11854;SDS011;5987;53.140;8.904;2022-12-10T15:31:39;28.20;;;15.47;;
11854;SDS011;5987;53.140;8.904;2022-12-10T15:34:45;25.90;;;14.80;;
11854;SDS011;5987;53.140;8.904;2022-12-10T15:37:52;28.10;;;15.30;;
11854;SDS011;5987;53.140;8.904;2022-12-10T15:41:20;30.33;;;15.40;;
11854;SDS011;5987;53.140;8.904;2022-12-10T15:44:45;28.47;;;15.30;;
11854;SDS011;5987;53.140;8.904;2022-12-10T15:47:49;22.70;;;13.97;;
11854;SDS011;5987;53.140;8.904;2022-12-10T15:50:53;25.47;;;14.53;;
11854;SDS011;5987;53.140;8.904;2022-12-10T15:53:57;24.93;;;15.57;;
11854;SDS011;5987;53.140;8.904;2022-12-10T15:57:04;25.33;;;14.10;;
11854;SDS011;5987;53.140;8.904;2022-12-10T16:00:17;26.90;;;15.27;;
11854;SDS011;5987;53.140;8.904;2022-12-10T16:03:24;24.27;;;14.30;;
11854;SDS011;5987;53.140;8.904;2022-12-10T16:06:31;25.83;;;15.80;;
11854;SDS011;5987;53.140;8.904;2022-12-10T16:09:35;25.83;;;14.60;;
11854;SDS011;5987;53.140;8.904;2022-12-10T16:12:40;24.73;;;15.07;;
11854;SDS011;5987;53.140;8.904;2022-12-10T16:15:48;25.10;;;15.60;;
11854;SDS011;5987;53.140;8.904;2022-12-10T16:18:57;26.57;;;15.57;;
11854;SDS011;5987;53.140;8.904;2022-12-10T16:22:01;26.63;;;16.17;;
11854;SDS011;5987;53.140;8.904;2022-12-10T16:25:05;27.60;;;15.40;;
11854;SDS011;5987;53.140;8.904;2022-12-10T16:28:12;26.33;;;15.90;;
11854;SDS011;5987;53.140;8.904;2022-12-10T16:31:19;27.33;;;15.37;;
11854;SDS011;5987;53.140;8.904;2022-12-10T16:34:24;37.20;;;23.63;;
11854;SDS011;5987;53.140;8.904;2022-12-10T16:37:27;63.97;;;37.13;;
11854;SDS011;5987;53.140;8.904;2022-12-10T16:40:31;34.53;;;20.60;;
11854;SDS011;5987;53.140;8.904;2022-12-10T16:43:36;30.20;;;16.90;;
11854;SDS011;5987;53.140;8.904;2022-12-10T16:46:40;38.37;;;19.83;;
11854;SDS011;5987;53.140;8.904;2022-12-10T16:49:44;51.73;;;32.33;;
11854;SDS011;5987;53.140;8.904;2022-12-10T16:52:48;27.10;;;17.57;;
11854;SDS011;5987;53.140;8.904;2022-12-10T16:55:53;32.40;;;19.43;;
11854;SDS011;5987;53.140;8.904;2022-12-10T16:59:00;29.90;;;17.27;;
11854;SDS011;5987;53.140;8.904;2022-12-10T17:02:05;30.23;;;17.00;;
11854;SDS011;5987;53.140;8.904;2022-12-10T17:05:17;33.13;;;17.40;;
11854;SDS011;5987;53.140;8.904;2022-12-10T17:08:30;30.20;;;18.40;;
11854;SDS011;5987;53.140;8.904;2022-12-10T17:11:35;30.40;;;17.80;;
11854;SDS011;5987;53.140;8.904;2022-12-10T17:14:51;30.40;;;19.83;;
11854;SDS011;5987;53.140;8.904;2022-12-10T17:17:55;33.77;;;17.47;;
11854;SDS011;5987;53.140;8.904;2022-12-10T17:20:58;34.40;;;18.40;;
11854;SDS011;5987;53.140;8.904;2022-12-10T17:24:02;41.87;;;25.83;;
11854;SDS011;5987;53.140;8.904;2022-12-10T17:27:07;34.53;;;19.03;;
11854;SDS011;5987;53.140;8.904;2022-12-10T17:30:18;31.30;;;19.93;;
11854;SDS011;5987;53.140;8.904;2022-12-10T17:33:22;30.03;;;18.00;;
11854;SDS011;5987;53.140;8.904;2022-12-10T17:36:27;42.23;;;26.47;;
11854;SDS011;5987;53.140;8.904;2022-12-10T17:39:31;30.97;;;18.43;;
11854;SDS011;5987;53.140;8.904;2022-12-10T17:42:38;30.17;;;18.90;;
11854;SDS011;5987;53.140;8.904;2022-12-10T17:45:55;51.03;;;34.73;;
11854;SDS011;5987;53.140;8.904;2022-12-10T17:49:06;29.20;;;17.80;;
11854;SDS011;5987;53.140;8.904;2022-12-10T17:52:14;47.40;;;29.87;;
11854;SDS011;5987;53.140;8.904;2022-12-10T17:55:23;36.17;;;22.00;;
11854;SDS011;5987;53.140;8.904;2022-12-10T17:58:37;33.97;;;20.93;;
11854;SDS011;5987;53.140;8.904;2022-12-10T18:01:48;39.60;;;25.73;;
11854;SDS011;5987;53.140;8.904;2022-12-10T18:04:54;38.10;;;23.83;;
11854;SDS011;5987;53.140;8.904;2022-12-10T18:08:08;36.73;;;23.57;;
11854;SDS011;5987;53.140;8.904;2022-12-10T18:11:19;31.10;;;18.73;;
11854;SDS011;5987;53.140;8.904;2022-12-10T18:14:27;31.37;;;18.90;;
11854;SDS011;5987;53.140;8.904;2022-12-10T18:17:32;36.30;;;20.77;;
11854;SDS011;5987;53.140;8.904;2022-12-10T18:20:37;51.40;;;33.30;;
11854;SDS011;5987;53.140;8.904;2022-12-10T18:23:44;38.40;;;23.67;;
11854;SDS011;5987;53.140;8.904;2022-12-10T18:26:50;31.17;;;19.17;;
11854;SDS011;5987;53.140;8.904;2022-12-10T18:29:58;44.70;;;28.43;;
11854;SDS011;5987;53.140;8.904;2022-12-10T18:33:04;35.73;;;20.60;;
11854;SDS011;5987;53.140;8.904;2022-12-10T18:36:08;36.57;;;21.47;;
11854;SDS011;5987;53.140;8.904;2022-12-10T18:39:25;25.10;;;17.27;;
11854;SDS011;5987;53.140;8.904;2022-12-10T18:42:32;38.07;;;24.80;;
11854;SDS011;5987;53.140;8.904;2022-12-10T18:45:36;49.93;;;35.47;;
11854;SDS011;5987;53.140;8.904;2022-12-10T18:48:41;42.70;;;25.73;;
11854;SDS011;5987;53.140;8.904;2022-12-10T18:51:46;46.77;;;33.13;;
11854;SDS011;5987;53.140;8.904;2022-12-10T18:54:50;33.00;;;20.43;;